Ballerina — SKNY — position and weather

sailwx.info

Track history (hours):
 
Tides and Currents Weather Stations Pressure Air Temp Water Temp Dewpoint Dewpoint Depression Visibility Wind Speed Wind Dir Waves Ship Positions

Ballerina

Last reported at 2018-Apr-27 05:00 UTC. Time now 2018-Apr-27 05:01 UTC.
Position N 59°20' E 018°05'.

Type: Passenger vessel. MMSI: 265550720.

Date/timePositionNaut miles runAvg speedWind from/ knotsBaromVisibWave heightAir tempDewpointWater temp
2018-Apr-27 05:00N 59°20' E 018°05'0 0.0
2018-Apr-27 04:27N 59°20' E 018°05'0 0.0
2018-Apr-26 16:45N 59°20' E 018°05'1 3.4
2018-Apr-26 16:30N 59°19' E 018°06'1 1.2
2018-Apr-26 16:00N 59°20' E 018°05'1 1.9
2018-Apr-26 15:30N 59°19' E 018°07'1 1.5
2018-Apr-26 15:00N 59°19' E 018°08'2 3.7
2018-Apr-26 14:29N 59°20' E 018°05'2 4.3
2018-Apr-26 14:00N 59°19' E 018°08'1 1.7
2018-Apr-26 13:30N 59°19' E 018°07'1 2.9
2018-Apr-26 13:00N 59°20' E 018°05'2 4.6
2018-Apr-26 12:29N 59°19' E 018°09'1 2.9
2018-Apr-26 12:00N 59°21' E 018°09'2 4.0
2018-Apr-26 11:30N 59°19' E 018°07'1 2.7
2018-Apr-26 11:00N 59°20' E 018°05'2 4.6
2018-Apr-26 10:30N 59°19' E 018°09'1 2.9
2018-Apr-26 10:00N 59°21' E 018°09'2 3.6
2018-Apr-26 09:31N 59°19' E 018°07'2 3.1
2018-Apr-26 09:00N 59°20' E 018°05'0 0.0
2018-Apr-26 08:30N 59°20' E 018°05'0 0.0
2018-Apr-26 08:00N 59°20' E 018°05'0 0.0
2018-Apr-26 07:30N 59°20' E 018°05'2 3.2
2018-Apr-26 07:00N 59°19' E 018°08'1 1.3
2018-Apr-26 06:30N 59°19' E 018°06'1 1.0
2018-Apr-26 06:00N 59°19' E 018°06'2 3.7
2018-Apr-26 05:30N 59°19' E 018°09'2 4.6
2018-Apr-26 05:00N 59°20' E 018°05'0 0.0
2018-Apr-26 04:30N 59°20' E 018°05'0 0.0
2018-Apr-25 16:42N 59°20' E 018°05'1 4.4
2018-Apr-25 16:30N 59°19' E 018°06'0 0.9
2018-Apr-25 16:00N 59°20' E 018°05'1 1.8
2018-Apr-25 15:30N 59°19' E 018°07'1 1.2
2018-Apr-25 15:00N 59°19' E 018°08'2 4.0
2018-Apr-25 14:30N 59°20' E 018°05'2 4.0
2018-Apr-25 14:00N 59°19' E 018°08'1 1.8
2018-Apr-25 13:31N 59°19' E 018°07'1 2.2
2018-Apr-25 12:59N 59°20' E 018°05'2 4.3
2018-Apr-25 12:30N 59°19' E 018°09'1 2.7
2018-Apr-25 12:00N 59°21' E 018°09'2 3.5
2018-Apr-25 11:30N 59°19' E 018°07'1 2.5
2018-Apr-25 11:00N 59°20' E 018°05'2 4.0
2018-Apr-25 10:30N 59°19' E 018°09'1 2.7
2018-Apr-25 10:00N 59°21' E 018°09'2 3.6
2018-Apr-25 09:30N 59°19' E 018°07'2 3.1
2018-Apr-25 09:00N 59°20' E 018°05'0 0.0
2018-Apr-25 08:30N 59°20' E 018°05'0 0.0
2018-Apr-25 08:00N 59°20' E 018°05'0 0.0
2018-Apr-25 07:30N 59°20' E 018°05'2 3.2
2018-Apr-25 07:00N 59°19' E 018°08'1 1.4
2018-Apr-25 06:30N 59°19' E 018°06'0 0.4
2018-Apr-25 06:00N 59°19' E 018°06'2 3.2
2018-Apr-25 05:30N 59°19' E 018°09'2 4.1
2018-Apr-25 04:57N 59°20' E 018°05'0 0.0
2018-Apr-25 04:30N 59°20' E 018°05'0 0.0
2018-Apr-24 16:46N 59°20' E 018°05'1 2.6
2018-Apr-24 16:30N 59°19' E 018°06'0 0.9
2018-Apr-24 16:00N 59°20' E 018°05'1 1.9
2018-Apr-24 15:30N 59°19' E 018°07'1 1.4
2018-Apr-24 15:00N 59°19' E 018°08'2 4.0
2018-Apr-24 14:30N 59°20' E 018°05'2 4.0
2018-Apr-24 14:00N 59°19' E 018°08'1 1.6
2018-Apr-24 13:30N 59°19' E 018°07'1 2.5
2018-Apr-24 13:00N 59°20' E 018°05'2 4.4
2018-Apr-24 12:30N 59°19' E 018°09'2 3.1
2018-Apr-24 12:01N 59°21' E 018°08'2 3.6
2018-Apr-24 11:30N 59°19' E 018°07'2 3.2
2018-Apr-24 11:00N 59°20' E 018°05'2 4.5
2018-Apr-24 10:30N 59°19' E 018°09'1 2.7
2018-Apr-24 10:00N 59°21' E 018°09'2 3.5
2018-Apr-24 09:30N 59°19' E 018°07'2 3.0
2018-Apr-24 09:00N 59°20' E 018°05'0 0.0
2018-Apr-24 08:19N 59°20' E 018°05'0 0.0
2018-Apr-24 07:54N 59°20' E 018°05'0 0.0
2018-Apr-24 07:30N 59°20' E 018°05'2 3.3
2018-Apr-24 07:00N 59°19' E 018°08'1 1.6
2018-Apr-24 06:30N 59°19' E 018°06'0 0.7
2018-Apr-24 06:00N 59°19' E 018°06'2 3.7
2018-Apr-24 05:30N 59°19' E 018°09'2 4.7
2018-Apr-24 04:59N 59°20' E 018°05'0 0.0
2018-Apr-24 04:30N 59°20' E 018°05'0 0.0
2018-Apr-23 17:05N 59°20' E 018°05'0 0.0
2018-Apr-23 16:56N 59°20' E 018°05'1 1.9
2018-Apr-23 16:30N 59°19' E 018°06'0 0.9
2018-Apr-23 16:00N 59°20' E 018°05'1 1.7
2018-Apr-23 15:30N 59°19' E 018°07'1 1.0
2018-Apr-23 15:01N 59°19' E 018°08'2 3.4
2018-Apr-23 14:28N 59°20' E 018°05'2 4.3
2018-Apr-23 14:00N 59°19' E 018°08'1 1.6
2018-Apr-23 13:30N 59°19' E 018°07'1 2.8
2018-Apr-23 13:00N 59°20' E 018°05'2 4.8
2018-Apr-23 12:30N 59°19' E 018°09'1 2.9
2018-Apr-23 12:00N 59°21' E 018°09'2 3.6
2018-Apr-23 11:30N 59°19' E 018°07'2 3.1
2018-Apr-23 11:00N 59°20' E 018°05'2 4.7
2018-Apr-23 10:30N 59°19' E 018°09'1 2.8
2018-Apr-23 10:00N 59°21' E 018°09'2 3.5
2018-Apr-23 09:30N 59°19' E 018°07'2 2.8
2018-Apr-23 08:58N 59°20' E 018°05'0 0.0
2018-Apr-23 07:43N 59°20' E 018°05'0 1.2
2018-Apr-23 07:30N 59°20' E 018°05'2 3.7
2018-Apr-23 06:59N 59°19' E 018°08'1 1.8
2018-Apr-23 06:30N 59°19' E 018°06'0 1.0
2018-Apr-23 06:00N 59°19' E 018°06'2 3.4
2018-Apr-23 05:30N 59°19' E 018°09'2 4.1
2018-Apr-23 04:58N 59°20' E 018°05'  
2018-Apr-20 17:13N 59°20' E 018°05'0 0.0
2018-Apr-20 16:58N 59°20' E 018°05'1 2.2
2018-Apr-20 16:30N 59°19' E 018°06'1 1.3
2018-Apr-20 16:01N 59°20' E 018°05'1 1.9
2018-Apr-20 15:31N 59°19' E 018°07'0 0.4
2018-Apr-20 15:00N 59°19' E 018°07'2 3.5
2018-Apr-20 14:30N 59°20' E 018°05'2 4.7
2018-Apr-20 14:00N 59°19' E 018°09'2 3.0
2018-Apr-20 13:30N 59°19' E 018°06'0 0.9
2018-Apr-20 13:00N 59°19' E 018°06'2 3.7
2018-Apr-20 12:30N 59°19' E 018°09'1 2.9
2018-Apr-20 12:00N 59°21' E 018°09'2 3.5
2018-Apr-20 11:30N 59°19' E 018°07'1 2.5
2018-Apr-20 11:00N 59°20' E 018°05'2 4.0
2018-Apr-20 10:29N 59°19' E 018°09'1 2.9
2018-Apr-20 10:00N 59°21' E 018°09'2 3.5
2018-Apr-20 09:30N 59°19' E 018°07'2 2.9
2018-Apr-20 08:58N 59°20' E 018°05'0 0.0
2018-Apr-20 08:28N 59°20' E 018°05'0 0.0
2018-Apr-20 07:58N 59°20' E 018°05'0 0.1
2018-Apr-20 07:30N 59°20' E 018°05'2 3.1
2018-Apr-20 07:00N 59°19' E 018°08'1 1.3
2018-Apr-20 06:30N 59°19' E 018°06'1 1.1
2018-Apr-20 06:00N 59°19' E 018°06'2 3.2
2018-Apr-20 05:30N 59°19' E 018°09'2 4.3
2018-Apr-20 05:00N 59°20' E 018°05'0 0.0
2018-Apr-20 04:31N 59°20' E 018°05'0 0.0
2018-Apr-19 16:51N 59°20' E 018°05'1 2.0
2018-Apr-19 16:30N 59°19' E 018°06'0 0.7
2018-Apr-19 16:00N 59°20' E 018°05'1 1.9
2018-Apr-19 15:29N 59°19' E 018°07'0 0.6
2018-Apr-19 15:00N 59°19' E 018°08'2 3.7
2018-Apr-19 14:30N 59°20' E 018°05'2 4.0
2018-Apr-19 14:00N 59°19' E 018°08'1 1.6
2018-Apr-19 13:30N 59°19' E 018°07'1 2.6
2018-Apr-19 13:00N 59°20' E 018°05'2 4.6
2018-Apr-19 12:30N 59°19' E 018°09'1 2.6
2018-Apr-19 12:00N 59°21' E 018°09'2 3.8
2018-Apr-19 11:30N 59°19' E 018°07'1 2.8
2018-Apr-19 11:00N 59°20' E 018°05'2 4.5
2018-Apr-19 10:30N 59°19' E 018°09'1 3.0
2018-Apr-19 10:00N 59°21' E 018°09'2 3.5
2018-Apr-19 09:30N 59°19' E 018°07'1 2.9
2018-Apr-19 09:00N 59°20' E 018°05'0 0.4
2018-Apr-19 08:28N 59°20' E 018°05'0 0.0
2018-Apr-19 07:58N 59°20' E 018°05'0 0.0
2018-Apr-19 07:30N 59°20' E 018°05'2 3.2
2018-Apr-19 07:00N 59°19' E 018°08'1 1.6
2018-Apr-19 06:30N 59°19' E 018°06'0 0.7
2018-Apr-19 06:00N 59°19' E 018°06'2 3.6
2018-Apr-19 05:30N 59°19' E 018°09'2 4.5
2018-Apr-19 04:59N 59°20' E 018°05'0 0.0
2018-Apr-18 17:23N 59°20' E 018°05'0 0.0
2018-Apr-18 16:59N 59°20' E 018°05'1 1.5
2018-Apr-18 16:30N 59°19' E 018°06'0 0.8
2018-Apr-18 16:00N 59°20' E 018°05'1 1.9
2018-Apr-18 15:30N 59°19' E 018°07'1 1.2
2018-Apr-18 15:00N 59°19' E 018°08'2 3.9
2018-Apr-18 14:29N 59°20' E 018°05'2 4.2
2018-Apr-18 14:00N 59°19' E 018°08'1 1.7
2018-Apr-18 13:30N 59°19' E 018°07'1 2.8
2018-Apr-18 13:00N 59°20' E 018°05'2 4.8
2018-Apr-18 12:30N 59°19' E 018°09'1 2.9
2018-Apr-18 12:00N 59°21' E 018°09'2 3.6
2018-Apr-18 11:30N 59°19' E 018°07'2 3.3
2018-Apr-18 11:00N 59°20' E 018°05'2 4.7
2018-Apr-18 10:30N 59°19' E 018°09'1 2.9
2018-Apr-18 10:00N 59°21' E 018°09'2 3.5
2018-Apr-18 09:30N 59°19' E 018°07'2 2.9
2018-Apr-18 08:58N 59°20' E 018°05'0 0.0
2018-Apr-18 08:28N 59°20' E 018°05'0 0.0
2018-Apr-18 07:58N 59°20' E 018°05'0 0.0
2018-Apr-18 07:30N 59°20' E 018°05'2 3.3
2018-Apr-18 06:59N 59°19' E 018°08'1 1.6
2018-Apr-18 06:30N 59°19' E 018°06'1 1.2
2018-Apr-18 06:00N 59°19' E 018°06'2 3.4
2018-Apr-18 05:29N 59°19' E 018°09'2 4.7
2018-Apr-18 05:00N 59°20' E 018°05'0 0.0
2018-Apr-18 04:30N 59°20' E 018°05'0 0.0
2018-Apr-17 17:13N 59°20' E 018°05'0 0.0
2018-Apr-17 16:58N 59°20' E 018°05'1 1.5
2018-Apr-17 16:30N 59°19' E 018°06'0 0.7
2018-Apr-17 16:00N 59°20' E 018°05'1 1.9
2018-Apr-17 15:30N 59°19' E 018°07'1 1.2
2018-Apr-17 15:00N 59°19' E 018°08'2 4.0
2018-Apr-17 14:30N 59°20' E 018°05'2 4.1
2018-Apr-17 14:00N 59°19' E 018°08'1 1.7
2018-Apr-17 13:30N 59°19' E 018°07'1 2.7
2018-Apr-17 13:00N 59°20' E 018°05'2 4.6
2018-Apr-17 12:30N 59°19' E 018°09'1 2.7
2018-Apr-17 11:59N 59°21' E 018°09'2 3.8
2018-Apr-17 11:31N 59°19' E 018°07'1 2.9
2018-Apr-17 11:01N 59°20' E 018°05'2 4.4
2018-Apr-17 10:30N 59°19' E 018°09'1 3.0
2018-Apr-17 10:00N 59°21' E 018°08'2 3.6
2018-Apr-17 09:30N 59°19' E 018°07'2 3.0
2018-Apr-17 08:59N 59°20' E 018°05'0 0.0
2018-Apr-17 08:29N 59°20' E 018°05'0 0.0
2018-Apr-17 07:59N 59°20' E 018°05'0 0.0
2018-Apr-17 07:30N 59°20' E 018°05'2 3.4
2018-Apr-17 07:00N 59°19' E 018°08'1 1.6
2018-Apr-17 06:30N 59°19' E 018°06'0 0.6
2018-Apr-17 06:00N 59°19' E 018°06'2 3.6
2018-Apr-17 05:30N 59°19' E 018°09'  
Track history (hours):
 
Tides and Currents Weather Stations Pressure Air Temp Water Temp Dewpoint Dewpoint Depression Visibility Wind Speed Wind Dir Waves Ship Positions

Ballerina

Last reported at 2018-Apr-27 05:00 UTC. Time now 2018-Apr-27 05:01 UTC.
Position N 59°20' E 018°05'.

Type: Passenger vessel. MMSI: 265550720.

Date/timePositionNaut miles runAvg speedWind from/ knotsBaromVisibWave heightAir tempDewpointWater temp
2018-Apr-27 05:00N 59°20' E 018°05'0 0.0
2018-Apr-27 04:27N 59°20' E 018°05'0 0.0
2018-Apr-26 16:45N 59°20' E 018°05'1 3.4
2018-Apr-26 16:30N 59°19' E 018°06'1 1.2
2018-Apr-26 16:00N 59°20' E 018°05'1 1.9
2018-Apr-26 15:30N 59°19' E 018°07'1 1.5
2018-Apr-26 15:00N 59°19' E 018°08'2 3.7
2018-Apr-26 14:29N 59°20' E 018°05'2 4.3
2018-Apr-26 14:00N 59°19' E 018°08'1 1.7
2018-Apr-26 13:30N 59°19' E 018°07'1 2.9
2018-Apr-26 13:00N 59°20' E 018°05'2 4.6
2018-Apr-26 12:29N 59°19' E 018°09'1 2.9
2018-Apr-26 12:00N 59°21' E 018°09'2 4.0
2018-Apr-26 11:30N 59°19' E 018°07'1 2.7
2018-Apr-26 11:00N 59°20' E 018°05'2 4.6
2018-Apr-26 10:30N 59°19' E 018°09'1 2.9
2018-Apr-26 10:00N 59°21' E 018°09'2 3.6
2018-Apr-26 09:31N 59°19' E 018°07'2 3.1
2018-Apr-26 09:00N 59°20' E 018°05'0 0.0
2018-Apr-26 08:30N 59°20' E 018°05'0 0.0
2018-Apr-26 08:00N 59°20' E 018°05'0 0.0
2018-Apr-26 07:30N 59°20' E 018°05'2 3.2
2018-Apr-26 07:00N 59°19' E 018°08'1 1.3
2018-Apr-26 06:30N 59°19' E 018°06'1 1.0
2018-Apr-26 06:00N 59°19' E 018°06'2 3.7
2018-Apr-26 05:30N 59°19' E 018°09'2 4.6
2018-Apr-26 05:00N 59°20' E 018°05'0 0.0
2018-Apr-26 04:30N 59°20' E 018°05'0 0.0
2018-Apr-25 16:42N 59°20' E 018°05'1 4.4
2018-Apr-25 16:30N 59°19' E 018°06'0 0.9
2018-Apr-25 16:00N 59°20' E 018°05'1 1.8
2018-Apr-25 15:30N 59°19' E 018°07'1 1.2
2018-Apr-25 15:00N 59°19' E 018°08'2 4.0
2018-Apr-25 14:30N 59°20' E 018°05'2 4.0
2018-Apr-25 14:00N 59°19' E 018°08'1 1.8
2018-Apr-25 13:31N 59°19' E 018°07'1 2.2
2018-Apr-25 12:59N 59°20' E 018°05'2 4.3
2018-Apr-25 12:30N 59°19' E 018°09'1 2.7
2018-Apr-25 12:00N 59°21' E 018°09'2 3.5
2018-Apr-25 11:30N 59°19' E 018°07'1 2.5
2018-Apr-25 11:00N 59°20' E 018°05'2 4.0
2018-Apr-25 10:30N 59°19' E 018°09'1 2.7
2018-Apr-25 10:00N 59°21' E 018°09'2 3.6
2018-Apr-25 09:30N 59°19' E 018°07'2 3.1
2018-Apr-25 09:00N 59°20' E 018°05'0 0.0
2018-Apr-25 08:30N 59°20' E 018°05'0 0.0
2018-Apr-25 08:00N 59°20' E 018°05'0 0.0
2018-Apr-25 07:30N 59°20' E 018°05'2 3.2
2018-Apr-25 07:00N 59°19' E 018°08'1 1.4
2018-Apr-25 06:30N 59°19' E 018°06'0 0.4
2018-Apr-25 06:00N 59°19' E 018°06'2 3.2
2018-Apr-25 05:30N 59°19' E 018°09'2 4.1
2018-Apr-25 04:57N 59°20' E 018°05'0 0.0
2018-Apr-25 04:30N 59°20' E 018°05'0 0.0
2018-Apr-24 16:46N 59°20' E 018°05'1 2.6
2018-Apr-24 16:30N 59°19' E 018°06'0 0.9
2018-Apr-24 16:00N 59°20' E 018°05'1 1.9
2018-Apr-24 15:30N 59°19' E 018°07'1 1.4
2018-Apr-24 15:00N 59°19' E 018°08'2 4.0
2018-Apr-24 14:30N 59°20' E 018°05'2 4.0
2018-Apr-24 14:00N 59°19' E 018°08'1 1.6
2018-Apr-24 13:30N 59°19' E 018°07'1 2.5
2018-Apr-24 13:00N 59°20' E 018°05'2 4.4
2018-Apr-24 12:30N 59°19' E 018°09'2 3.1
2018-Apr-24 12:01N 59°21' E 018°08'2 3.6
2018-Apr-24 11:30N 59°19' E 018°07'2 3.2
2018-Apr-24 11:00N 59°20' E 018°05'2 4.5
2018-Apr-24 10:30N 59°19' E 018°09'1 2.7
2018-Apr-24 10:00N 59°21' E 018°09'2 3.5
2018-Apr-24 09:30N 59°19' E 018°07'2 3.0
2018-Apr-24 09:00N 59°20' E 018°05'0 0.0
2018-Apr-24 08:19N 59°20' E 018°05'0 0.0
2018-Apr-24 07:54N 59°20' E 018°05'0 0.0
2018-Apr-24 07:30N 59°20' E 018°05'2 3.3
2018-Apr-24 07:00N 59°19' E 018°08'1 1.6
2018-Apr-24 06:30N 59°19' E 018°06'0 0.7
2018-Apr-24 06:00N 59°19' E 018°06'2 3.7
2018-Apr-24 05:30N 59°19' E 018°09'2 4.7
2018-Apr-24 04:59N 59°20' E 018°05'0 0.0
2018-Apr-24 04:30N 59°20' E 018°05'0 0.0
2018-Apr-23 17:05N 59°20' E 018°05'0 0.0
2018-Apr-23 16:56N 59°20' E 018°05'1 1.9
2018-Apr-23 16:30N 59°19' E 018°06'0 0.9
2018-Apr-23 16:00N 59°20' E 018°05'1 1.7
2018-Apr-23 15:30N 59°19' E 018°07'1 1.0
2018-Apr-23 15:01N 59°19' E 018°08'2 3.4
2018-Apr-23 14:28N 59°20' E 018°05'2 4.3
2018-Apr-23 14:00N 59°19' E 018°08'1 1.6
2018-Apr-23 13:30N 59°19' E 018°07'1 2.8
2018-Apr-23 13:00N 59°20' E 018°05'2 4.8
2018-Apr-23 12:30N 59°19' E 018°09'1 2.9
2018-Apr-23 12:00N 59°21' E 018°09'2 3.6
2018-Apr-23 11:30N 59°19' E 018°07'2 3.1
2018-Apr-23 11:00N 59°20' E 018°05'2 4.7
2018-Apr-23 10:30N 59°19' E 018°09'1 2.8
2018-Apr-23 10:00N 59°21' E 018°09'2 3.5
2018-Apr-23 09:30N 59°19' E 018°07'2 2.8
2018-Apr-23 08:58N 59°20' E 018°05'0 0.0
2018-Apr-23 07:43N 59°20' E 018°05'0 1.2
2018-Apr-23 07:30N 59°20' E 018°05'2 3.7
2018-Apr-23 06:59N 59°19' E 018°08'1 1.8
2018-Apr-23 06:30N 59°19' E 018°06'0 1.0
2018-Apr-23 06:00N 59°19' E 018°06'2 3.4
2018-Apr-23 05:30N 59°19' E 018°09'2 4.1
2018-Apr-23 04:58N 59°20' E 018°05'  
2018-Apr-20 17:13N 59°20' E 018°05'0 0.0
2018-Apr-20 16:58N 59°20' E 018°05'1 2.2
2018-Apr-20 16:30N 59°19' E 018°06'1 1.3
2018-Apr-20 16:01N 59°20' E 018°05'1 1.9
2018-Apr-20 15:31N 59°19' E 018°07'0 0.4
2018-Apr-20 15:00N 59°19' E 018°07'2 3.5
2018-Apr-20 14:30N 59°20' E 018°05'2 4.7
2018-Apr-20 14:00N 59°19' E 018°09'2 3.0
2018-Apr-20 13:30N 59°19' E 018°06'0 0.9
2018-Apr-20 13:00N 59°19' E 018°06'2 3.7
2018-Apr-20 12:30N 59°19' E 018°09'1 2.9
2018-Apr-20 12:00N 59°21' E 018°09'2 3.5
2018-Apr-20 11:30N 59°19' E 018°07'1 2.5
2018-Apr-20 11:00N 59°20' E 018°05'2 4.0
2018-Apr-20 10:29N 59°19' E 018°09'1 2.9
2018-Apr-20 10:00N 59°21' E 018°09'2 3.5
2018-Apr-20 09:30N 59°19' E 018°07'2 2.9
2018-Apr-20 08:58N 59°20' E 018°05'0 0.0
2018-Apr-20 08:28N 59°20' E 018°05'0 0.0
2018-Apr-20 07:58N 59°20' E 018°05'0 0.1
2018-Apr-20 07:30N 59°20' E 018°05'2 3.1
2018-Apr-20 07:00N 59°19' E 018°08'1 1.3
2018-Apr-20 06:30N 59°19' E 018°06'1 1.1
2018-Apr-20 06:00N 59°19' E 018°06'2 3.2
2018-Apr-20 05:30N 59°19' E 018°09'2 4.3
2018-Apr-20 05:00N 59°20' E 018°05'0 0.0
2018-Apr-20 04:31N 59°20' E 018°05'0 0.0
2018-Apr-19 16:51N 59°20' E 018°05'1 2.0
2018-Apr-19 16:30N 59°19' E 018°06'0 0.7
2018-Apr-19 16:00N 59°20' E 018°05'1 1.9
2018-Apr-19 15:29N 59°19' E 018°07'0 0.6
2018-Apr-19 15:00N 59°19' E 018°08'2 3.7
2018-Apr-19 14:30N 59°20' E 018°05'2 4.0
2018-Apr-19 14:00N 59°19' E 018°08'1 1.6
2018-Apr-19 13:30N 59°19' E 018°07'1 2.6
2018-Apr-19 13:00N 59°20' E 018°05'2 4.6
2018-Apr-19 12:30N 59°19' E 018°09'1 2.6
2018-Apr-19 12:00N 59°21' E 018°09'2 3.8
2018-Apr-19 11:30N 59°19' E 018°07'1 2.8
2018-Apr-19 11:00N 59°20' E 018°05'2 4.5
2018-Apr-19 10:30N 59°19' E 018°09'1 3.0
2018-Apr-19 10:00N 59°21' E 018°09'2 3.5
2018-Apr-19 09:30N 59°19' E 018°07'1 2.9
2018-Apr-19 09:00N 59°20' E 018°05'0 0.4
2018-Apr-19 08:28N 59°20' E 018°05'0 0.0
2018-Apr-19 07:58N 59°20' E 018°05'0 0.0
2018-Apr-19 07:30N 59°20' E 018°05'2 3.2
2018-Apr-19 07:00N 59°19' E 018°08'1 1.6
2018-Apr-19 06:30N 59°19' E 018°06'0 0.7
2018-Apr-19 06:00N 59°19' E 018°06'2 3.6
2018-Apr-19 05:30N 59°19' E 018°09'2 4.5
2018-Apr-19 04:59N 59°20' E 018°05'0 0.0
2018-Apr-18 17:23N 59°20' E 018°05'0 0.0
2018-Apr-18 16:59N 59°20' E 018°05'1 1.5
2018-Apr-18 16:30N 59°19' E 018°06'0 0.8
2018-Apr-18 16:00N 59°20' E 018°05'1 1.9
2018-Apr-18 15:30N 59°19' E 018°07'1 1.2
2018-Apr-18 15:00N 59°19' E 018°08'2 3.9
2018-Apr-18 14:29N 59°20' E 018°05'2 4.2
2018-Apr-18 14:00N 59°19' E 018°08'1 1.7
2018-Apr-18 13:30N 59°19' E 018°07'1 2.8
2018-Apr-18 13:00N 59°20' E 018°05'2 4.8
2018-Apr-18 12:30N 59°19' E 018°09'1 2.9
2018-Apr-18 12:00N 59°21' E 018°09'2 3.6
2018-Apr-18 11:30N 59°19' E 018°07'2 3.3
2018-Apr-18 11:00N 59°20' E 018°05'2 4.7
2018-Apr-18 10:30N 59°19' E 018°09'1 2.9
2018-Apr-18 10:00N 59°21' E 018°09'2 3.5
2018-Apr-18 09:30N 59°19' E 018°07'2 2.9
2018-Apr-18 08:58N 59°20' E 018°05'0 0.0
2018-Apr-18 08:28N 59°20' E 018°05'0 0.0
2018-Apr-18 07:58N 59°20' E 018°05'0 0.0
2018-Apr-18 07:30N 59°20' E 018°05'2 3.3
2018-Apr-18 06:59N 59°19' E 018°08'1 1.6
2018-Apr-18 06:30N 59°19' E 018°06'1 1.2
2018-Apr-18 06:00N 59°19' E 018°06'2 3.4
2018-Apr-18 05:29N 59°19' E 018°09'2 4.7
2018-Apr-18 05:00N 59°20' E 018°05'0 0.0
2018-Apr-18 04:30N 59°20' E 018°05'0 0.0
2018-Apr-17 17:13N 59°20' E 018°05'0 0.0
2018-Apr-17 16:58N 59°20' E 018°05'1 1.5
2018-Apr-17 16:30N 59°19' E 018°06'0 0.7
2018-Apr-17 16:00N 59°20' E 018°05'1 1.9
2018-Apr-17 15:30N 59°19' E 018°07'1 1.2
2018-Apr-17 15:00N 59°19' E 018°08'2 4.0
2018-Apr-17 14:30N 59°20' E 018°05'2 4.1
2018-Apr-17 14:00N 59°19' E 018°08'1 1.7
2018-Apr-17 13:30N 59°19' E 018°07'1 2.7
2018-Apr-17 13:00N 59°20' E 018°05'2 4.6
2018-Apr-17 12:30N 59°19' E 018°09'1 2.7
2018-Apr-17 11:59N 59°21' E 018°09'2 3.8
2018-Apr-17 11:31N 59°19' E 018°07'1 2.9
2018-Apr-17 11:01N 59°20' E 018°05'2 4.4
2018-Apr-17 10:30N 59°19' E 018°09'1 3.0
2018-Apr-17 10:00N 59°21' E 018°08'2 3.6
2018-Apr-17 09:30N 59°19' E 018°07'2 3.0
2018-Apr-17 08:59N 59°20' E 018°05'0 0.0
2018-Apr-17 08:29N 59°20' E 018°05'0 0.0
2018-Apr-17 07:59N 59°20' E 018°05'0 0.0
2018-Apr-17 07:30N 59°20' E 018°05'2 3.4
2018-Apr-17 07:00N 59°19' E 018°08'1 1.6
2018-Apr-17 06:30N 59°19' E 018°06'0 0.6
2018-Apr-17 06:00N 59°19' E 018°06'2 3.6
2018-Apr-17 05:30N 59°19' E 018°09'  

Dump ship's entire track history